Time;durP1;ratioP1;P1;durP2;ratioP2;P2;SDS_P1;SDS_P2;PMS_P1;PMS_P2;Temp;Humidity;BMP_temperature;BMP_pressure;BME280_temperature;BME280_humidity;BME280_pressure;Samples;Min_cycle;Max_cycle;Signal;HPM_P1;HPM_P2
2022/12/25 00:01:50;;;;;;;5.70;1.90;;;9.70;99.90;;;;;;5072026;28;20482;-54
2022/12/25 00:04:15;;;;;;;5.82;1.80;;;9.80;99.90;;;;;;5071126;28;20415;-54
2022/12/25 00:06:41;;;;;;;5.80;1.60;;;9.90;1.00;;;;;;5072473;28;20379;-54
2022/12/25 00:09:06;;;;;;;6.60;1.63;;;9.90;99.90;;;;;;5071617;28;20392;-54
2022/12/25 00:11:32;;;;;;;5.50;1.70;;;9.90;99.90;;;;;;5054288;28;20439;-54
2022/12/25 00:13:57;;;;;;;6.70;1.70;;;10.00;99.90;;;;;;5072251;28;20489;-55
2022/12/25 00:16:25;;;;;;;8.15;1.90;;;10.00;99.90;;;;;;5061734;28;20392;-54
2022/12/25 00:18:51;;;;;;;4.95;1.60;;;10.00;99.90;;;;;;5071605;28;20402;-54
2022/12/25 00:21:18;;;;;;;8.00;2.50;;;9.90;99.90;;;;;;5070869;28;20366;-54
2022/12/25 00:23:44;;;;;;;7.70;1.80;;;9.90;99.90;;;;;;5071909;28;20423;-54
2022/12/25 00:26:13;;;;;;;6.27;2.30;;;10.00;99.90;;;;;;5070554;28;20416;-55
2022/12/25 00:28:38;;;;;;;6.22;1.88;;;10.00;99.90;;;;;;5071414;28;20383;-54
2022/12/25 00:31:10;;;;;;;5.50;1.83;;;10.40;99.90;;;;;;5071245;28;20396;-55
2022/12/25 00:33:37;;;;;;;5.90;1.70;;;10.00;99.90;;;;;;5071387;28;20386;-55
2022/12/25 00:36:05;;;;;;;5.43;1.80;;;10.20;99.90;;;;;;5071362;28;20929;-54
2022/12/25 00:38:33;;;;;;;5.97;1.73;;;10.20;99.90;;;;;;5070837;28;20403;-54
2022/12/25 00:41:03;;;;;;;5.95;1.60;;;10.20;99.90;;;;;;5071050;28;20384;-54
2022/12/25 00:43:28;;;;;;;5.30;1.60;;;10.20;99.90;;;;;;5070475;28;20432;-54
2022/12/25 00:45:59;;;;;;;5.40;1.60;;;10.10;99.90;;;;;;5071707;28;20494;-54
2022/12/25 00:48:26;;;;;;;5.50;1.70;;;10.10;99.90;;;;;;5068745;28;20714;-54
2022/12/25 00:51:00;;;;;;;5.30;1.42;;;10.60;99.90;;;;;;5070776;28;20436;-54
2022/12/25 00:53:27;;;;;;;6.20;1.50;;;10.20;99.90;;;;;;5066360;28;20463;-54
2022/12/25 00:55:59;;;;;;;6.30;1.98;;;10.20;99.90;;;;;;5070265;28;20415;-54
2022/12/25 00:58:26;;;;;;;5.80;1.70;;;10.30;99.90;;;;;;5066333;28;20415;-54
2022/12/25 01:00:51;;;;;;;6.30;1.60;;;10.30;99.90;;;;;;5071259;28;20845;-54
2022/12/25 01:03:17;;;;;;;6.77;1.40;;;10.40;99.90;;;;;;5070129;28;20474;-54
2022/12/25 01:05:52;;;;;;;6.20;1.60;;;10.40;99.90;;;;;;5035175;28;20763;-54
2022/12/25 01:08:18;;;;;;;4.85;1.50;;;10.40;99.90;;;;;;5070427;28;20368;-54
2022/12/25 01:10:43;;;;;;;6.17;1.50;;;10.40;1.00;;;;;;5070728;28;20922;-54
2022/12/25 01:13:09;;;;;;;7.00;1.50;;;10.40;33.60;;;;;;5068421;28;20372;-54
2022/12/25 01:15:36;;;;;;;6.50;1.85;;;10.50;75.60;;;;;;5069916;28;20472;-55
2022/12/25 01:18:01;;;;;;;5.47;1.95;;;10.50;1.00;;;;;;5070374;28;20407;-54
2022/12/25 01:20:27;;;;;;;6.13;2.00;;;10.40;1.00;;;;;;5069968;28;20856;-55
2022/12/25 01:22:52;;;;;;;7.00;1.70;;;10.30;63.40;;;;;;5070301;28;20788;-55
2022/12/25 01:25:18;;;;;;;6.13;1.70;;;10.10;99.90;;;;;;5069647;28;20410;-54
2022/12/25 01:27:44;;;;;;;6.03;2.00;;;10.10;99.90;;;;;;5070573;28;20374;-54
2022/12/25 01:30:10;;;;;;;8.07;2.38;;;10.00;99.90;;;;;;5069487;28;20384;-54
2022/12/25 01:32:36;;;;;;;6.68;2.08;;;10.00;99.90;;;;;;5070275;28;20376;-57
2022/12/25 01:35:01;;;;;;;8.68;2.30;;;10.10;99.90;;;;;;5069394;28;20847;-54
2022/12/25 01:37:27;;;;;;;8.00;2.43;;;10.10;99.90;;;;;;5069575;28;20400;-54
2022/12/25 01:39:52;;;;;;;6.57;2.27;;;10.20;99.90;;;;;;5070519;28;20876;-54
2022/12/25 01:42:20;;;;;;;7.85;3.28;;;10.20;99.90;;;;;;5069765;28;20387;-54
2022/12/25 01:44:46;;;;;;;9.10;3.05;;;10.10;99.90;;;;;;5070357;28;20379;-54
2022/12/25 01:47:13;;;;;;;6.70;2.58;;;10.10;99.90;;;;;;5069099;28;20449;-54
2022/12/25 01:49:43;;;;;;;8.85;3.10;;;10.10;99.90;;;;;;5069991;28;20391;-54
2022/12/25 01:52:22;;;;;;;7.30;2.90;;;10.10;99.90;;;;;;5069058;28;20545;-54
2022/12/25 01:54:55;;;;;;;9.32;3.72;;;10.10;99.90;;;;;;5069996;28;20479;-54
2022/12/25 01:57:26;;;;;;;9.43;3.67;;;10.10;99.90;;;;;;5066960;28;20422;-55
2022/12/25 01:59:52;;;;;;;10.60;3.63;;;10.10;99.90;;;;;;5070667;28;20419;-56
2022/12/25 02:02:18;;;;;;;11.40;3.60;;;10.10;99.90;;;;;;5068277;28;20399;-54
2022/12/25 02:04:55;;;;;;;8.07;3.50;;;10.00;99.90;;;;;;5069581;28;20407;-54
2022/12/25 02:07:24;;;;;;;11.98;3.60;;;10.10;1.00;;;;;;5066392;28;20414;-57
2022/12/25 02:09:51;;;;;;;8.32;3.10;;;10.10;99.90;;;;;;5070098;28;20859;-54
2022/12/25 02:12:25;;;;;;;8.30;3.20;;;10.10;1.00;;;;;;5068743;28;20400;-54
2022/12/25 02:14:54;;;;;;;9.73;3.60;;;10.10;1.00;;;;;;5069647;28;20392;-54
2022/12/25 02:17:48;;;;;;;9.68;4.00;;;10.10;1.00;;;;;;5066191;28;20392;-54
2022/12/25 02:20:25;;;;;;;9.85;3.75;;;10.10;1.00;;;;;;5067732;28;20380;-54
2022/12/25 02:23:28;;;;;;;8.10;3.60;;;10.20;99.90;;;;;;5068278;28;20394;-54
2022/12/25 02:26:16;;;;;;;9.27;4.00;;;10.20;99.90;;;;;;5068874;28;20388;-54
2022/12/25 02:28:51;;;;;;;8.63;3.40;;;10.30;99.90;;;;;;5066663;28;20396;-54
2022/12/25 02:31:19;;;;;;;9.57;3.90;;;10.30;99.90;;;;;;5068573;28;20415;-54
2022/12/25 02:34:02;;;;;;;9.18;4.00;;;10.30;99.90;;;;;;5069012;28;20380;-54
2022/12/25 02:36:49;;;;;;;10.48;3.78;;;10.40;99.90;;;;;;5067500;28;20391;-54
2022/12/25 02:42:21;;;;;;;9.77;3.78;;;10.40;99.90;;;;;;5067545;28;20379;-59
2022/12/25 03:07:01;;;;;;;7.82;3.42;;;9.90;1.00;;;;;;5054409;28;20379;-54
2022/12/25 03:12:37;;;;;;;10.32;3.95;;;9.80;1.00;;;;;;5067845;28;20749;-54
2022/12/25 03:17:49;;;;;;;10.25;4.10;;;9.70;1.00;;;;;;5067225;28;20418;-54
2022/12/25 03:28:28;;;;;;;10.07;3.50;;;9.50;1.00;;;;;;5070927;28;20426;-54
2022/12/25 03:31:15;;;;;;;8.40;3.55;;;9.30;1.00;;;;;;5072362;28;20383;-54
2022/12/25 03:35:21;;;;;;;10.17;4.40;;;9.40;1.00;;;;;;5069520;28;20434;-54
2022/12/25 03:43:08;;;;;;;8.48;3.70;;;9.40;1.00;;;;;;5069437;28;20383;-54
2022/12/25 04:37:44;;;;;;;10.90;5.40;;;9.30;19.60;;;;;;5071594;28;20371;-54
2022/12/25 04:40:10;;;;;;;12.48;5.85;;;9.30;22.80;;;;;;5070884;28;20391;-59
2022/12/25 04:42:36;;;;;;;12.30;5.50;;;9.30;26.60;;;;;;5070893;28;20376;-55
2022/12/25 04:45:01;;;;;;;11.75;5.47;;;9.40;26.40;;;;;;5071220;28;20751;-54
2022/12/25 04:47:27;;;;;;;11.93;5.40;;;9.40;14.50;;;;;;5070731;28;20407;-54
2022/12/25 04:49:53;;;;;;;13.57;4.85;;;9.30;1.00;;;;;;5070016;28;20411;-54
2022/12/25 04:52:18;;;;;;;11.00;5.70;;;9.50;16.60;;;;;;5070320;28;20824;-55
2022/12/25 04:54:44;;;;;;;8.23;3.50;;;9.40;11.30;;;;;;5067439;28;20407;-54
2022/12/25 04:57:09;;;;;;;9.05;2.67;;;9.40;1.00;;;;;;5071430;28;20379;-54
2022/12/25 04:59:35;;;;;;;9.50;2.93;;;9.40;1.00;;;;;;5069893;28;20372;-54
2022/12/25 05:02:01;;;;;;;5.70;2.50;;;9.50;1.00;;;;;;5070910;28;20718;-56
2022/12/25 05:04:26;;;;;;;8.40;2.20;;;9.40;1.00;;;;;;5070657;28;20407;-54
2022/12/25 05:06:52;;;;;;;8.10;1.95;;;9.50;1.00;;;;;;5070929;28;20402;-54
2022/12/25 05:09:18;;;;;;;5.97;2.30;;;9.50;1.00;;;;;;5060365;28;20772;-56
2022/12/25 05:11:43;;;;;;;6.40;2.47;;;9.60;1.00;;;;;;5070755;28;20423;-55
2022/12/25 05:14:09;;;;;;;6.40;2.42;;;9.60;1.00;;;;;;5070318;28;20429;-54
2022/12/25 05:16:34;;;;;;;8.37;2.40;;;9.60;1.00;;;;;;5069666;28;20402;-54
2022/12/25 05:19:00;;;;;;;7.20;2.60;;;9.60;1.00;;;;;;5070223;28;20387;-55
2022/12/25 05:21:25;;;;;;;7.47;3.00;;;9.60;1.00;;;;;;5070287;28;20450;-54
2022/12/25 05:23:52;;;;;;;5.80;2.30;;;10.30;1.00;;;;;;5070540;28;20729;-54
2022/12/25 05:26:23;;;;;;;6.75;2.47;;;9.70;1.00;;;;;;5070191;28;20383;-55
2022/12/25 05:28:49;;;;;;;7.00;2.30;;;9.60;1.00;;;;;;5070157;28;20387;-54
2022/12/25 05:31:16;;;;;;;5.93;2.70;;;9.70;1.00;;;;;;5069552;28;20382;-59
2022/12/25 05:33:42;;;;;;;7.20;2.58;;;9.90;1.00;;;;;;5067530;28;20380;-54
2022/12/25 05:36:09;;;;;;;7.30;2.80;;;9.90;1.00;;;;;;5071040;28;20420;-55
2022/12/25 05:38:36;;;;;;;6.43;2.33;;;9.90;1.00;;;;;;5070024;28;20387;-55
2022/12/25 05:41:01;;;;;;;6.72;2.38;;;9.90;1.00;;;;;;5067857;28;20763;-54
2022/12/25 05:43:28;;;;;;;6.73;2.20;;;9.90;1.00;;;;;;5069174;28;20471;-54
2022/12/25 05:45:53;;;;;;;6.10;2.30;;;9.90;1.00;;;;;;5069761;28;20395;-55
2022/12/25 05:48:19;;;;;;;6.30;2.33;;;9.90;1.00;;;;;;5069149;28;20400;-54
2022/12/25 05:50:45;;;;;;;6.95;2.60;;;10.00;1.00;;;;;;5070217;28;20470;-54
2022/12/25 05:53:13;;;;;;;5.43;2.10;;;9.90;1.00;;;;;;5069846;28;20395;-54
2022/12/25 05:55:42;;;;;;;6.30;2.50;;;10.00;1.00;;;;;;5069473;28;20395;-55
2022/12/25 05:58:09;;;;;;;6.40;2.22;;;10.00;1.00;;;;;;5069840;28;20884;-55
2022/12/25 06:00:35;;;;;;;5.90;2.22;;;10.10;1.00;;;;;;5069041;28;20378;-55
2022/12/25 06:03:01;;;;;;;5.50;2.20;;;10.10;1.00;;;;;;5069641;28;20475;-55
2022/12/25 06:05:26;;;;;;;6.10;1.93;;;10.10;1.00;;;;;;5068896;28;20527;-55
2022/12/25 06:07:52;;;;;;;5.67;1.90;;;10.20;1.00;;;;;;5069472;28;20384;-57
2022/12/25 06:10:18;;;;;;;6.65;2.33;;;10.20;1.00;;;;;;5068943;28;20387;-55
2022/12/25 06:12:43;;;;;;;7.23;2.10;;;10.10;1.00;;;;;;5069695;28;20737;-54
2022/12/25 06:15:09;;;;;;;5.82;1.90;;;10.20;1.00;;;;;;5069634;28;20435;-57
2022/12/25 06:17:34;;;;;;;5.70;1.97;;;10.20;1.00;;;;;;5068588;28;20734;-54
2022/12/25 06:20:01;;;;;;;5.63;1.97;;;10.20;1.00;;;;;;5069499;28;20391;-54
2022/12/25 06:22:33;;;;;;;5.87;2.00;;;10.10;1.00;;;;;;5069384;28;20396;-54
2022/12/25 06:24:59;;;;;;;8.20;2.60;;;10.20;1.00;;;;;;5069339;28;20383;-55
2022/12/25 06:27:25;;;;;;;6.60;2.70;;;10.20;1.00;;;;;;5068731;28;20388;-55
2022/12/25 06:29:51;;;;;;;6.18;2.80;;;10.20;1.00;;;;;;5069784;28;20465;-55
2022/12/25 06:32:17;;;;;;;8.38;2.90;;;10.30;99.90;;;;;;5068625;28;20383;-57
2022/12/25 06:34:42;;;;;;;7.70;2.40;;;10.40;99.90;;;;;;5069221;28;21187;-54
2022/12/25 06:37:08;;;;;;;6.68;2.50;;;10.30;99.90;;;;;;5069821;28;20376;-55
2022/12/25 06:39:34;;;;;;;9.00;2.70;;;10.40;99.90;;;;;;5068971;28;20391;-54
2022/12/25 06:41:59;;;;;;;8.30;2.40;;;10.40;99.90;;;;;;5069025;28;20675;-54
2022/12/25 06:44:25;;;;;;;6.10;2.10;;;10.30;99.90;;;;;;5069064;28;20380;-55
2022/12/25 06:46:52;;;;;;;8.70;2.80;;;10.40;99.90;;;;;;5069108;28;20390;-54
2022/12/25 06:49:17;;;;;;;6.30;2.50;;;10.40;99.90;;;;;;5068521;28;20380;-52
2022/12/25 06:51:43;;;;;;;9.27;2.43;;;10.40;99.90;;;;;;5069581;28;20394;-54
2022/12/25 06:54:08;;;;;;;6.78;2.50;;;10.50;99.90;;;;;;5069663;28;20380;-55
2022/12/25 06:56:34;;;;;;;9.40;2.60;;;10.60;99.90;;;;;;5070255;28;20457;-54
2022/12/25 06:59:02;;;;;;;7.18;2.70;;;10.60;99.90;;;;;;5073521;28;20861;-55
2022/12/25 07:01:38;;;;;;;8.00;2.78;;;10.50;99.90;;;;;;5072679;28;20841;-54
2022/12/25 07:04:10;;;;;;;7.57;3.25;;;10.40;99.90;;;;;;5068006;28;20740;-54
2022/12/25 07:06:35;;;;;;;6.35;2.30;;;10.40;99.90;;;;;;5068761;28;20395;-55
2022/12/25 07:09:01;;;;;;;8.20;2.80;;;10.50;99.90;;;;;;5072946;28;20849;-55
2022/12/25 07:11:27;;;;;;;8.32;3.47;;;10.50;99.90;;;;;;5071808;28;20384;-55
2022/12/25 07:13:53;;;;;;;8.03;3.53;;;10.60;99.90;;;;;;5072617;28;20888;-58
2022/12/25 07:16:19;;;;;;;7.78;2.92;;;10.50;99.90;;;;;;5070632;28;20433;-58
2022/12/25 07:18:44;;;;;;;7.87;3.07;;;10.60;99.90;;;;;;5071862;28;20388;-58
2022/12/25 07:21:15;;;;;;;13.93;6.10;;;10.60;99.90;;;;;;5078867;28;20864;-58
2022/12/25 07:23:42;;;;;;;12.27;4.95;;;10.70;99.90;;;;;;5075194;28;20470;-58
2022/12/25 07:26:09;;;;;;;13.70;5.18;;;10.70;99.90;;;;;;5088457;28;20387;-57
2022/12/25 07:28:35;;;;;;;8.18;3.80;;;10.70;99.90;;;;;;5080767;28;20386;-58
2022/12/25 07:31:06;;;;;;;11.10;4.28;;;10.70;99.40;;;;;;5080288;28;20380;-58
2022/12/25 07:33:32;;;;;;;7.68;3.13;;;10.70;88.40;;;;;;5073581;28;20400;-58
2022/12/25 07:35:59;;;;;;;8.25;3.08;;;10.60;99.30;;;;;;5088729;28;20961;-54
2022/12/25 07:38:24;;;;;;;5.70;2.20;;;10.60;99.90;;;;;;5071518;28;20880;-53
2022/12/25 07:40:50;;;;;;;10.17;3.97;;;10.50;99.90;;;;;;5076170;28;20399;-53
2022/12/25 07:43:16;;;;;;;12.18;4.90;;;10.50;99.90;;;;;;5067507;28;20419;-58
2022/12/25 07:45:41;;;;;;;12.87;4.40;;;10.60;99.90;;;;;;5069967;28;20400;-53
2022/12/25 07:48:07;;;;;;;18.03;6.30;;;10.60;99.90;;;;;;5052843;28;20801;-56
2022/12/25 07:50:32;;;;;;;19.65;6.53;;;10.50;99.90;;;;;;5068525;28;20388;-53
2022/12/25 07:52:58;;;;;;;22.40;8.20;;;10.50;99.90;;;;;;5068936;28;20440;-53
2022/12/25 07:55:23;;;;;;;11.53;5.00;;;10.60;99.90;;;;;;5069845;28;20415;-55
2022/12/25 07:57:49;;;;;;;11.63;4.95;;;10.70;99.90;;;;;;5072113;28;20382;-53
2022/12/25 08:00:15;;;;;;;17.43;5.73;;;10.70;99.90;;;;;;5071629;28;20480;-57
2022/12/25 08:02:41;;;;;;;16.00;5.93;;;10.80;99.90;;;;;;5071705;28;20861;-53
2022/12/25 08:05:07;;;;;;;9.80;4.10;;;10.90;1.00;;;;;;5069907;28;20497;-53
2022/12/25 08:07:34;;;;;;;14.03;4.70;;;10.80;1.00;;;;;;5068789;28;20395;-54
2022/12/25 08:10:01;;;;;;;8.03;3.80;;;10.70;1.00;;;;;;5068833;28;20388;-53
2022/12/25 08:12:26;;;;;;;7.00;2.70;;;10.70;1.00;;;;;;5070617;28;20776;-52
2022/12/25 08:14:52;;;;;;;8.27;3.10;;;10.70;1.00;;;;;;5068327;28;20415;-52
2022/12/25 08:17:17;;;;;;;11.93;3.37;;;10.60;1.00;;;;;;5066487;28;20439;-57
2022/12/25 08:19:43;;;;;;;5.97;2.60;;;10.70;3.60;;;;;;5065928;28;20396;-53
2022/12/25 08:22:09;;;;;;;6.60;2.50;;;10.70;1.00;;;;;;5069079;28;20806;-53
2022/12/25 08:24:34;;;;;;;7.83;2.80;;;10.70;1.00;;;;;;5070227;28;20475;-52
2022/12/25 08:27:00;;;;;;;7.80;2.83;;;10.70;1.00;;;;;;5071275;28;20404;-53
2022/12/25 08:29:27;;;;;;;6.67;2.80;;;10.70;1.00;;;;;;5070443;28;20392;-53
2022/12/25 08:31:53;;;;;;;9.15;3.00;;;10.70;1.00;;;;;;5071457;28;20422;-53
2022/12/25 08:34:19;;;;;;;9.77;2.93;;;10.70;1.00;;;;;;5068515;28;20440;-53
2022/12/25 08:36:45;;;;;;;7.88;3.50;;;10.70;1.00;;;;;;5070934;28;20382;-53
2022/12/25 08:39:10;;;;;;;7.33;3.00;;;10.80;1.00;;;;;;5069939;28;20880;-53
2022/12/25 08:41:36;;;;;;;7.80;3.15;;;10.90;1.00;;;;;;5070408;28;20408;-54
2022/12/25 08:44:03;;;;;;;8.63;3.37;;;11.00;1.00;;;;;;5070718;28;20388;-53
2022/12/25 08:46:29;;;;;;;8.20;3.30;;;11.10;1.00;;;;;;5069987;28;20725;-53
2022/12/25 08:48:55;;;;;;;8.18;3.20;;;11.20;1.00;;;;;;5070284;28;20403;-54
2022/12/25 08:51:23;;;;;;;7.78;3.30;;;11.30;1.00;;;;;;5066662;28;20422;-53
2022/12/25 08:53:50;;;;;;;8.20;3.30;;;11.40;1.00;;;;;;5067409;28;20475;-53
2022/12/25 08:56:17;;;;;;;7.63;2.85;;;11.80;99.90;;;;;;5070343;28;20469;-57
2022/12/25 08:58:43;;;;;;;8.07;2.83;;;12.00;1.00;;;;;;5070519;28;20873;-53
2022/12/25 09:01:10;;;;;;;6.60;2.15;;;12.00;99.90;;;;;;5070696;28;20384;-52
2022/12/25 09:03:36;;;;;;;6.50;2.50;;;12.10;99.90;;;;;;5069942;28;20396;-53
2022/12/25 09:06:03;;;;;;;6.37;2.30;;;12.20;1.00;;;;;;5068274;28;20446;-53
2022/12/25 09:08:29;;;;;;;6.40;2.38;;;12.50;1.00;;;;;;5060498;28;20393;-52
2022/12/25 09:10:55;;;;;;;5.70;1.90;;;13.10;99.90;;;;;;5066045;28;20411;-53
2022/12/25 09:13:21;;;;;;;7.27;2.10;;;12.40;99.90;;;;;;5065343;28;20422;-53
2022/12/25 09:15:47;;;;;;;5.30;1.70;;;15.00;99.90;;;;;;5068963;28;20458;-53
2022/12/25 09:18:12;;;;;;;7.22;2.40;;;16.30;99.90;;;;;;5064210;28;20651;-53
2022/12/25 09:20:38;;;;;;;6.60;2.50;;;17.90;1.00;;;;;;5063167;28;20393;-53
2022/12/25 09:23:03;;;;;;;6.27;4.27;;;19.10;1.00;;;;;;5069211;28;20859;-53
2022/12/25 09:25:29;;;;;;;7.63;5.60;;;19.60;1.00;;;;;;5067955;28;20441;-53
2022/12/25 09:27:56;;;;;;;8.40;7.60;;;19.60;1.00;;;;;;5067307;28;20767;-52
2022/12/25 09:30:22;;;;;;;10.70;9.80;;;19.90;1.00;;;;;;5058756;28;20449;-53
2022/12/25 09:32:47;;;;;;;8.65;5.40;;;19.70;1.00;;;;;;5062365;28;20395;-52
2022/12/25 09:35:16;;;;;;;7.40;3.90;;;20.00;1.00;;;;;;5066356;28;20420;-52
2022/12/25 09:37:42;;;;;;;5.60;1.65;;;19.90;1.00;;;;;;5063220;28;20398;-52
2022/12/25 09:40:14;;;;;;;5.50;1.60;;;19.90;1.00;;;;;;5060254;28;20423;-52
2022/12/25 09:42:41;;;;;;;6.10;1.70;;;20.10;1.00;;;;;;5061645;28;20397;-53
2022/12/25 09:45:22;;;;;;;6.75;1.80;;;20.10;1.00;;;;;;5064310;28;20420;-52
2022/12/25 09:47:50;;;;;;;7.28;1.80;;;20.70;1.00;;;;;;5063565;28;20407;-53
2022/12/25 09:50:22;;;;;;;6.93;2.00;;;21.40;1.00;;;;;;5066606;28;20426;-58
2022/12/25 09:52:54;;;;;;;6.47;2.50;;;22.40;1.00;;;;;;5062482;28;21114;-53
2022/12/25 09:55:23;;;;;;;7.00;5.00;;;23.00;1.00;;;;;;5059468;28;20428;-55
2022/12/25 09:57:52;;;;;;;7.70;1.90;;;23.20;1.00;;;;;;5062444;28;20399;-54
2022/12/25 10:00:21;;;;;;;5.72;1.40;;;24.00;1.00;;;;;;5065659;28;20557;-58
2022/12/25 10:03:02;;;;;;;6.20;1.90;;;24.50;1.00;;;;;;5068747;28;20453;-54
2022/12/25 10:05:46;;;;;;;5.20;1.40;;;24.50;1.00;;;;;;5066186;28;20419;-54
2022/12/25 10:08:24;;;;;;;6.17;3.60;;;23.90;1.00;;;;;;5063949;28;20399;-54
2022/12/25 10:11:20;;;;;;;5.43;1.55;;;23.10;1.00;;;;;;5068803;28;20435;-54
2022/12/25 10:14:16;;;;;;;7.40;6.70;;;21.80;1.00;;;;;;5068879;28;20457;-54
2022/12/25 10:17:03;;;;;;;9.65;7.75;;;21.60;1.00;;;;;;5067657;28;20399;-54
2022/12/25 10:19:51;;;;;;;9.90;8.90;;;21.90;1.00;;;;;;5066543;28;20407;-53
2022/12/25 10:22:32;;;;;;;8.60;6.82;;;20.70;1.00;;;;;;5067338;28;20787;-57
2022/12/25 10:24:59;;;;;;;7.55;5.40;;;20.30;1.00;;;;;;5068415;28;20753;-53
2022/12/25 10:27:30;;;;;;;7.53;4.70;;;20.10;1.00;;;;;;5067880;28;20419;-53
2022/12/25 10:29:55;;;;;;;6.70;4.20;;;20.00;1.00;;;;;;5066900;28;20480;-53
2022/12/25 10:32:21;;;;;;;7.77;4.00;;;19.90;1.00;;;;;;5067686;28;20410;-57
2022/12/25 10:34:47;;;;;;;7.55;4.38;;;19.90;1.00;;;;;;5068775;28;20469;-54
2022/12/25 10:37:13;;;;;;;6.82;3.35;;;19.30;1.00;;;;;;5066163;28;20384;-54
2022/12/25 10:39:39;;;;;;;8.57;3.20;;;18.40;1.00;;;;;;5068288;28;20383;-54
2022/12/25 10:42:07;;;;;;;6.03;2.60;;;18.00;1.00;;;;;;5047476;28;20875;-53
2022/12/25 10:44:33;;;;;;;6.80;2.50;;;18.00;1.00;;;;;;5066227;28;20380;-54
2022/12/25 10:47:04;;;;;;;7.43;2.90;;;18.50;1.00;;;;;;5068324;28;20453;-53
2022/12/25 10:49:36;;;;;;;8.50;2.70;;;18.90;1.00;;;;;;5066776;28;20436;-53
2022/12/25 10:52:02;;;;;;;6.10;2.33;;;19.10;1.00;;;;;;5068418;28;20417;-53
2022/12/25 10:54:33;;;;;;;8.20;2.30;;;19.30;1.00;;;;;;5061019;28;20413;-53
2022/12/25 10:57:08;;;;;;;5.55;2.13;;;19.70;1.00;;;;;;5056189;28;20377;-53
2022/12/25 10:59:41;;;;;;;6.60;2.70;;;19.70;1.00;;;;;;5059757;28;20429;-55
2022/12/25 11:02:26;;;;;;;8.50;3.30;;;19.50;1.00;;;;;;5066813;28;20384;-55
2022/12/25 11:05:01;;;;;;;8.85;3.60;;;19.30;1.00;;;;;;5066783;28;20482;-55
2022/12/25 11:07:27;;;;;;;8.97;3.80;;;19.10;1.00;;;;;;5068499;28;20376;-55
2022/12/25 11:10:01;;;;;;;7.78;3.58;;;19.40;1.00;;;;;;5068594;28;20936;-53
2022/12/25 11:12:36;;;;;;;8.50;3.42;;;19.30;1.00;;;;;;5062622;28;20718;-52
2022/12/25 11:15:25;;;;;;;6.80;3.15;;;19.10;1.00;;;;;;5054032;28;20422;-53
2022/12/25 11:17:51;;;;;;;7.68;3.80;;;19.00;1.00;;;;;;5066104;28;20459;-53
2022/12/25 11:20:19;;;;;;;7.80;3.50;;;18.60;1.00;;;;;;5067612;28;20852;-53
2022/12/25 11:22:46;;;;;;;8.25;3.70;;;17.90;1.00;;;;;;5067944;28;20441;-52
2022/12/25 11:25:16;;;;;;;9.43;3.90;;;17.50;1.00;;;;;;5068597;28;20478;-53
2022/12/25 11:27:42;;;;;;;8.25;3.35;;;17.20;1.00;;;;;;5070569;28;20399;-54
2022/12/25 11:30:13;;;;;;;7.90;3.08;;;16.80;1.00;;;;;;5063522;28;20535;-53
2022/12/25 11:32:54;;;;;;;8.15;3.00;;;16.40;1.00;;;;;;5054802;28;20944;-53
2022/12/25 11:35:22;;;;;;;7.47;3.08;;;16.30;1.00;;;;;;5060735;28;20433;-58
2022/12/25 11:37:50;;;;;;;7.30;2.83;;;16.20;1.00;;;;;;5068503;28;20384;-54
2022/12/25 11:40:32;;;;;;;7.80;2.50;;;16.20;1.00;;;;;;5059317;28;20388;-52
2022/12/25 11:43:10;;;;;;;6.70;2.73;;;16.20;1.00;;;;;;5067341;28;20433;-54
2022/12/25 11:45:40;;;;;;;6.72;3.00;;;16.30;1.00;;;;;;5065998;28;20403;-53
2022/12/25 11:48:16;;;;;;;6.80;2.60;;;16.20;1.00;;;;;;5070678;28;20395;-53
2022/12/25 11:50:48;;;;;;;7.00;3.10;;;16.00;1.00;;;;;;5062351;28;20400;-53
2022/12/25 11:53:23;;;;;;;7.60;2.97;;;15.90;1.00;;;;;;5069616;28;20395;-53
2022/12/25 11:55:55;;;;;;;8.23;3.10;;;16.00;1.00;;;;;;5070411;28;20431;-52
2022/12/25 11:58:23;;;;;;;8.63;2.83;;;16.10;1.00;;;;;;5064251;28;21080;-59
2022/12/25 12:00:52;;;;;;;7.07;2.75;;;16.10;1.00;;;;;;5059095;28;20414;-55
2022/12/25 12:03:23;;;;;;;8.20;2.92;;;16.10;1.00;;;;;;5072729;28;20414;-58
2022/12/25 12:06:00;;;;;;;6.70;2.53;;;16.30;1.00;;;;;;5070668;28;20400;-53
2022/12/25 12:08:26;;;;;;;6.95;2.70;;;16.50;1.00;;;;;;5067510;28;20414;-53
2022/12/25 12:11:18;;;;;;;8.10;2.50;;;16.70;1.00;;;;;;5070538;28;20414;-53
2022/12/25 12:14:04;;;;;;;7.90;2.30;;;16.50;1.00;;;;;;5069585;28;20392;-53
2022/12/25 12:16:30;;;;;;;6.47;2.42;;;16.40;1.00;;;;;;5069601;28;20419;-53
2022/12/25 12:18:56;;;;;;;8.17;2.50;;;16.50;1.00;;;;;;5068092;28;20391;-53
2022/12/25 12:21:28;;;;;;;7.18;2.50;;;16.50;1.00;;;;;;5070554;28;20403;-58
2022/12/25 12:24:01;;;;;;;6.00;2.17;;;16.60;1.00;;;;;;5053369;28;20411;-53
2022/12/25 12:26:29;;;;;;;7.95;2.60;;;16.60;1.00;;;;;;5069177;28;20432;-53
2022/12/25 12:28:58;;;;;;;6.70;2.28;;;16.80;1.00;;;;;;5069454;28;20392;-53
2022/12/25 12:31:34;;;;;;;7.37;2.40;;;17.10;1.00;;;;;;5065575;28;20434;-53
2022/12/25 12:34:00;;;;;;;7.57;2.60;;;17.30;1.00;;;;;;5068314;28;20415;-53
2022/12/25 12:36:27;;;;;;;6.85;2.20;;;17.30;1.00;;;;;;5070616;28;20518;-53
2022/12/25 12:38:55;;;;;;;7.20;2.30;;;17.40;1.00;;;;;;5062543;28;20404;-53
2022/12/25 12:41:24;;;;;;;7.10;2.30;;;17.30;1.00;;;;;;5068297;28;20396;-59
2022/12/25 12:44:02;;;;;;;6.38;2.10;;;17.20;1.00;;;;;;5069402;28;20427;-53
2022/12/25 12:46:38;;;;;;;7.70;2.40;;;16.80;1.00;;;;;;5063969;28;20407;-54
2022/12/25 12:49:26;;;;;;;9.13;2.40;;;16.60;1.00;;;;;;5070114;28;20452;-53
2022/12/25 12:52:25;;;;;;;7.78;2.33;;;16.40;1.00;;;;;;5052165;28;20434;-53
2022/12/25 12:55:13;;;;;;;7.40;2.72;;;16.50;1.00;;;;;;5067200;28;20420;-53
2022/12/25 12:57:39;;;;;;;7.43;2.20;;;16.50;1.00;;;;;;5067422;28;21049;-52
2022/12/25 13:00:23;;;;;;;7.47;2.70;;;16.60;1.00;;;;;;5067204;28;20419;-53
2022/12/25 13:03:23;;;;;;;5.90;2.10;;;16.70;1.00;;;;;;5070027;28;20487;-52
2022/12/25 13:06:01;;;;;;;7.00;2.30;;;16.70;1.00;;;;;;5068763;28;20407;-52
2022/12/25 13:08:48;;;;;;;7.38;2.33;;;16.90;1.00;;;;;;5069468;28;20820;-52
2022/12/25 13:11:28;;;;;;;6.70;2.50;;;16.90;1.00;;;;;;5067312;28;20389;-53
2022/12/25 13:13:56;;;;;;;8.82;2.90;;;17.00;1.00;;;;;;5061265;28;20408;-52
2022/12/25 13:16:22;;;;;;;7.30;2.70;;;17.10;1.00;;;;;;5068722;28;20415;-58
2022/12/25 13:18:50;;;;;;;8.02;2.47;;;17.10;1.00;;;;;;5067407;28;20425;-52
2022/12/25 13:21:21;;;;;;;7.30;2.25;;;17.20;1.00;;;;;;5064187;28;20437;-56
2022/12/25 13:23:47;;;;;;;7.50;2.30;;;17.20;1.00;;;;;;5064890;28;20891;-53
2022/12/25 13:26:16;;;;;;;7.03;2.33;;;17.30;1.00;;;;;;5059311;28;20399;-52
2022/12/25 13:28:45;;;;;;;6.30;2.40;;;17.40;1.00;;;;;;5069133;28;20392;-52
2022/12/25 13:31:23;;;;;;;7.85;2.70;;;17.40;1.00;;;;;;5064385;28;20392;-52
2022/12/25 13:34:04;;;;;;;8.02;2.80;;;17.40;1.00;;;;;;5064633;28;20876;-53
2022/12/25 13:36:36;;;;;;;7.30;2.40;;;17.40;1.00;;;;;;5064285;28;21290;-52
2022/12/25 13:39:05;;;;;;;7.65;2.35;;;17.40;1.00;;;;;;5067412;28;20440;-52
2022/12/25 13:44:39;;;;;;;6.70;2.00;;;17.30;1.00;;;;;;5066189;28;20451;-52
2022/12/25 13:47:17;;;;;;;9.23;2.50;;;17.20;1.00;;;;;;5066769;28;20433;-52
2022/12/25 13:49:43;;;;;;;7.40;1.90;;;17.10;1.00;;;;;;5068317;28;20403;-52
2022/12/25 13:52:17;;;;;;;8.65;2.85;;;17.10;1.00;;;;;;5062005;28;20399;-52
2022/12/25 13:55:01;;;;;;;10.57;3.10;;;17.20;1.00;;;;;;5065536;28;20457;-53
2022/12/25 13:57:33;;;;;;;8.18;2.53;;;17.20;1.00;;;;;;5067904;28;20387;-52
2022/12/25 13:59:59;;;;;;;5.60;1.60;;;17.20;1.00;;;;;;5065815;28;21199;-53
2022/12/25 14:02:31;;;;;;;9.07;2.60;;;17.00;1.00;;;;;;5065580;28;20380;-52
2022/12/25 14:04:57;;;;;;;6.32;1.80;;;17.00;1.00;;;;;;5067028;28;20400;-52
2022/12/25 14:07:23;;;;;;;9.55;2.78;;;17.10;1.00;;;;;;5065739;28;20477;-58
2022/12/25 14:09:55;;;;;;;6.90;1.80;;;16.90;1.00;;;;;;5064845;28;20404;-52
2022/12/25 14:12:22;;;;;;;6.55;1.45;;;16.90;1.00;;;;;;5068237;28;20467;-57
2022/12/25 14:14:50;;;;;;;7.10;2.30;;;16.80;1.00;;;;;;5066760;28;20455;-52
2022/12/25 14:17:15;;;;;;;8.02;2.72;;;16.90;1.00;;;;;;5067552;28;20387;-52
2022/12/25 14:19:41;;;;;;;6.07;1.60;;;16.70;1.00;;;;;;5067810;28;20391;-52
2022/12/25 14:22:20;;;;;;;6.00;1.50;;;16.70;1.00;;;;;;5067372;28;20490;-53
2022/12/25 14:24:46;;;;;;;5.15;1.30;;;16.60;1.00;;;;;;5068588;28;20383;-53
2022/12/25 14:27:24;;;;;;;7.30;2.50;;;16.30;1.00;;;;;;5066465;28;20408;-52
2022/12/25 14:29:53;;;;;;;6.90;2.07;;;16.20;1.00;;;;;;5066345;28;20388;-56
2022/12/25 14:32:24;;;;;;;6.40;2.17;;;16.10;1.00;;;;;;5068984;28;20391;-58
2022/12/25 14:34:58;;;;;;;6.13;1.80;;;16.00;1.00;;;;;;5069401;28;20434;-52
2022/12/25 14:37:28;;;;;;;6.60;2.08;;;15.90;1.00;;;;;;5067811;28;20386;-53
2022/12/25 14:40:05;;;;;;;8.02;2.83;;;15.80;1.00;;;;;;5069704;28;20383;-52
2022/12/25 14:42:36;;;;;;;6.45;1.60;;;15.80;1.00;;;;;;5068989;28;20427;-52
2022/12/25 14:45:23;;;;;;;5.53;1.50;;;15.60;1.00;;;;;;5069520;28;20388;-52
2022/12/25 14:48:02;;;;;;;6.50;1.80;;;15.40;1.00;;;;;;5069673;28;20779;-52